createdAt,value
2018-05-13T00:00:27.422Z,41.20
2018-05-13T00:00:59.949Z,41.20
2018-05-13T00:01:32.468Z,41.20
2018-05-13T00:02:05.024Z,41.30
2018-05-13T00:02:37.559Z,41.40
2018-05-13T00:03:10.866Z,42.10
2018-05-13T00:03:43.393Z,41.70
2018-05-13T00:04:15.907Z,41.60
2018-05-13T00:04:48.660Z,41.80
2018-05-13T00:05:21.923Z,42.30
2018-05-13T00:05:54.404Z,42.80
2018-05-13T00:06:26.956Z,42.60
2018-05-13T00:06:59.502Z,42.40
2018-05-13T00:07:32.060Z,42.20
2018-05-13T00:08:07.436Z,42.50
2018-05-13T00:08:39.955Z,42.70
2018-05-13T00:09:12.472Z,42.30
2018-05-13T00:09:45.013Z,42.50
2018-05-13T00:10:17.523Z,42.30
2018-05-13T00:10:50.056Z,42.40
2018-05-13T00:11:22.619Z,43.00
2018-05-13T00:11:55.191Z,42.60
2018-05-13T00:12:27.712Z,42.50
2018-05-13T00:13:00.347Z,42.40
2018-05-13T00:13:32.887Z,42.80
2018-05-13T00:14:05.411Z,43.30
2018-05-13T00:14:37.947Z,43.60
2018-05-13T00:15:10.471Z,43.50
2018-05-13T00:15:42.988Z,43.30
2018-05-13T00:16:15.754Z,43.30
2018-05-13T00:16:48.292Z,43.10
2018-05-13T00:17:20.867Z,43.70
2018-05-13T00:17:53.436Z,43.90
2018-05-13T00:18:25.965Z,43.60
2018-05-13T00:18:58.503Z,43.40
2018-05-13T00:19:31.046Z,43.20
2018-05-13T00:20:03.593Z,43.10
2018-05-13T00:20:36.118Z,43.70
2018-05-13T00:21:08.665Z,44.00
2018-05-13T00:21:41.175Z,44.10
2018-05-13T00:22:13.723Z,44.10
2018-05-13T00:22:46.263Z,44.00
2018-05-13T00:23:18.803Z,43.90
2018-05-13T00:23:51.343Z,44.00
2018-05-13T00:24:23.888Z,44.10
2018-05-13T00:24:57.191Z,44.70
2018-05-13T00:25:29.731Z,44.40
2018-05-13T00:26:02.277Z,44.50
2018-05-13T00:26:34.820Z,44.40
2018-05-13T00:27:07.382Z,44.40
2018-05-13T00:27:39.935Z,44.10
2018-05-13T00:28:13.145Z,44.00
2018-05-13T00:28:45.681Z,43.90
2018-05-13T00:29:18.197Z,44.00
2018-05-13T00:29:50.955Z,44.20
2018-05-13T00:30:23.487Z,44.10
2018-05-13T00:30:56.028Z,44.00
2018-05-13T00:31:28.567Z,43.80
2018-05-13T00:32:01.105Z,43.70
2018-05-13T00:32:33.632Z,43.80
2018-05-13T00:33:06.163Z,44.40
2018-05-13T00:33:38.675Z,44.30
2018-05-13T00:34:11.236Z,44.30
2018-05-13T00:34:43.777Z,44.50
2018-05-13T00:35:16.292Z,44.40
2018-05-13T00:35:48.811Z,44.20
2018-05-13T00:36:21.355Z,44.20
2018-05-13T00:36:53.887Z,44.80
2018-05-13T00:37:26.437Z,44.50
2018-05-13T00:37:58.966Z,44.90
2018-05-13T00:38:31.480Z,44.80
2018-05-13T00:39:03.995Z,45.00
2018-05-13T00:39:36.514Z,44.90
2018-05-13T00:40:09.069Z,44.80
2018-05-13T00:40:41.587Z,44.70
2018-05-13T00:41:14.127Z,44.80
2018-05-13T00:41:46.652Z,45.00
2018-05-13T00:42:19.210Z,45.20
2018-05-13T00:42:51.785Z,45.00
2018-05-13T00:43:24.323Z,44.50
2018-05-13T00:43:57.263Z,44.10
2018-05-13T00:44:31.051Z,44.60
2018-05-13T00:45:03.599Z,44.90
2018-05-13T00:45:36.137Z,45.10
2018-05-13T00:46:08.682Z,45.00
2018-05-13T00:46:41.200Z,44.90
2018-05-13T00:47:13.744Z,44.80
2018-05-13T00:47:46.259Z,44.70
2018-05-13T00:48:29.534Z,45.70
2018-05-13T00:49:02.069Z,45.70
2018-05-13T00:49:34.607Z,45.60
2018-05-13T00:50:07.172Z,45.40
2018-05-13T00:50:39.742Z,45.20
2018-05-13T00:51:12.280Z,45.10
2018-05-13T00:51:44.797Z,45.00
2018-05-13T00:52:17.333Z,44.70
2018-05-13T00:52:49.847Z,44.80
2018-05-13T00:53:22.378Z,44.70
2018-05-13T00:53:54.915Z,44.70
2018-05-13T00:54:40.091Z,45.10
2018-05-13T00:55:12.631Z,45.10
2018-05-13T00:55:45.162Z,45.00
2018-05-13T00:56:17.710Z,45.10
2018-05-13T00:56:50.232Z,44.90
2018-05-13T00:57:22.782Z,44.80
2018-05-13T00:57:55.337Z,45.00
2018-05-13T00:58:27.864Z,45.00
2018-05-13T00:59:00.374Z,44.70
2018-05-13T00:59:32.900Z,44.80
2018-05-13T01:00:05.418Z,45.00
2018-05-13T01:00:38.722Z,46.10
2018-05-13T01:01:11.243Z,46.00
2018-05-13T01:01:43.776Z,45.90
2018-05-13T01:02:16.328Z,45.40
2018-05-13T01:02:48.943Z,45.50
2018-05-13T01:03:21.436Z,45.70
2018-05-13T01:03:53.959Z,45.70
2018-05-13T01:04:26.515Z,45.70
2018-05-13T01:04:59.048Z,45.90
2018-05-13T01:05:31.583Z,45.90
2018-05-13T01:06:04.124Z,45.70
2018-05-13T01:06:36.671Z,45.60
2018-05-13T01:07:09.243Z,45.60
2018-05-13T01:07:41.810Z,45.70
2018-05-13T01:08:14.358Z,46.00
2018-05-13T01:08:46.881Z,45.70
2018-05-13T01:09:19.490Z,45.90
2018-05-13T01:09:52.037Z,46.10
2018-05-13T01:10:24.647Z,46.10
2018-05-13T01:10:57.168Z,46.20
2018-05-13T01:11:29.695Z,46.00
2018-05-13T01:12:02.272Z,46.10
2018-05-13T01:12:34.791Z,46.00
2018-05-13T01:13:07.355Z,46.10
2018-05-13T01:13:39.888Z,45.80
2018-05-13T01:14:12.440Z,45.70
2018-05-13T01:14:44.950Z,45.50
2018-05-13T01:15:17.483Z,45.10
2018-05-13T01:15:50.260Z,44.80
2018-05-13T01:16:22.852Z,45.40
2018-05-13T01:16:55.423Z,45.90
2018-05-13T01:17:27.972Z,45.80
2018-05-13T01:18:00.538Z,45.60
2018-05-13T01:18:33.181Z,45.50
2018-05-13T01:19:05.743Z,45.70
2018-05-13T01:19:38.312Z,45.50
2018-05-13T01:20:10.865Z,45.90
2018-05-13T01:20:43.400Z,46.00
2018-05-13T01:21:15.917Z,46.20
2018-05-13T01:21:48.503Z,46.10
2018-05-13T01:22:21.036Z,45.70
2018-05-13T01:22:53.551Z,45.90
2018-05-13T01:23:26.074Z,45.80
2018-05-13T01:23:58.591Z,46.60
2018-05-13T01:24:31.131Z,45.70
2018-05-13T01:25:03.689Z,45.40
2018-05-13T01:25:36.268Z,45.50
2018-05-13T01:26:08.808Z,45.50
2018-05-13T01:26:41.328Z,45.30
2018-05-13T01:27:14.604Z,45.60
2018-05-13T01:27:47.145Z,45.50
2018-05-13T01:28:19.666Z,45.60
2018-05-13T01:28:52.184Z,45.90
2018-05-13T01:29:24.715Z,46.20
2018-05-13T01:29:57.256Z,46.20
2018-05-13T01:30:29.797Z,46.50
2018-05-13T01:31:03.123Z,46.40
2018-05-13T01:31:35.680Z,46.40
2018-05-13T01:32:08.201Z,46.10
2018-05-13T01:32:40.740Z,46.00
2018-05-13T01:33:13.275Z,45.10
2018-05-13T01:33:45.843Z,45.10
2018-05-13T01:34:18.364Z,45.30
2018-05-13T01:34:50.908Z,45.70
2018-05-13T01:35:24.215Z,45.80
2018-05-13T01:35:56.739Z,45.70
2018-05-13T01:36:29.280Z,45.80
2018-05-13T01:37:01.823Z,46.10
2018-05-13T01:37:34.335Z,46.20
2018-05-13T01:38:06.879Z,46.20
2018-05-13T01:38:39.391Z,45.50
2018-05-13T01:39:12.812Z,44.50
2018-05-13T01:39:45.347Z,45.20
2018-05-13T01:40:17.911Z,44.70
2018-05-13T01:40:50.426Z,45.30
2018-05-13T01:41:22.947Z,45.50
2018-05-13T01:41:55.503Z,45.30
2018-05-13T01:42:28.044Z,44.90
2018-05-13T01:43:00.583Z,45.10
2018-05-13T01:43:33.124Z,45.00
2018-05-13T01:44:05.661Z,44.80
2018-05-13T01:44:38.196Z,45.10
2018-05-13T01:45:10.743Z,44.30
2018-05-13T01:45:43.287Z,43.80
2018-05-13T01:46:15.836Z,43.50
2018-05-13T01:46:48.383Z,44.10
2018-05-13T01:47:20.942Z,44.30
2018-05-13T01:47:53.489Z,45.00
2018-05-13T01:48:26.044Z,45.10
2018-05-13T01:48:59.167Z,45.50
2018-05-13T01:49:31.705Z,45.50
2018-05-13T01:50:04.248Z,45.30
2018-05-13T01:50:36.763Z,44.70
2018-05-13T01:51:09.299Z,45.10
2018-05-13T01:51:41.834Z,45.50
2018-05-13T01:52:14.371Z,45.60
2018-05-13T01:52:46.946Z,45.70
2018-05-13T01:53:19.510Z,44.80
2018-05-13T01:53:52.057Z,43.90
2018-05-13T01:54:25.336Z,44.00
2018-05-13T01:54:57.863Z,44.00
2018-05-13T01:55:30.386Z,44.30
2018-05-13T01:56:02.903Z,45.00
2018-05-13T01:56:35.423Z,45.30
2018-05-13T01:57:07.958Z,45.30
2018-05-13T01:57:41.286Z,45.30
2018-05-13T01:58:13.800Z,45.30
2018-05-13T01:58:46.336Z,45.50
2018-05-13T01:59:18.858Z,45.00
2018-05-13T01:59:51.376Z,44.80
2018-05-13T02:00:23.926Z,44.60
2018-05-13T02:00:56.463Z,45.10
2018-05-13T02:01:28.996Z,45.00
2018-05-13T02:02:01.512Z,45.60
2018-05-13T02:02:34.069Z,45.20
2018-05-13T02:03:06.633Z,45.00
2018-05-13T02:03:39.159Z,44.60
2018-05-13T02:04:11.682Z,45.00
2018-05-13T02:04:44.223Z,45.30
2018-05-13T02:05:16.741Z,45.30
2018-05-13T02:05:50.965Z,44.60
2018-05-13T02:06:23.499Z,44.60
2018-05-13T02:06:56.062Z,44.30
2018-05-13T02:07:28.604Z,44.30
2018-05-13T02:08:01.891Z,43.90
2018-05-13T02:08:34.427Z,43.90
2018-05-13T02:09:06.961Z,44.40
2018-05-13T02:09:39.471Z,44.60
2018-05-13T02:10:11.979Z,44.90
2018-05-13T02:10:44.510Z,44.10
2018-05-13T02:11:17.799Z,44.60
2018-05-13T02:11:51.084Z,43.70
2018-05-13T02:12:23.597Z,43.80
2018-05-13T02:12:56.131Z,43.60
2018-05-13T02:13:28.647Z,44.40
2018-05-13T02:14:01.212Z,44.80
2018-05-13T02:14:33.775Z,45.00
2018-05-13T02:15:06.312Z,45.10
2018-05-13T02:15:38.845Z,44.20
2018-05-13T02:16:11.372Z,43.60
2018-05-13T02:16:43.885Z,43.40
2018-05-13T02:17:16.429Z,43.50
2018-05-13T02:17:48.998Z,44.10
2018-05-13T02:18:21.550Z,44.50
2018-05-13T02:18:54.073Z,44.70
2018-05-13T02:19:26.584Z,43.80
2018-05-13T02:19:59.153Z,43.70
2018-05-13T02:20:31.687Z,43.50
2018-05-13T02:21:04.972Z,43.50
2018-05-13T02:21:37.482Z,43.60
2018-05-13T02:22:10.022Z,44.20
2018-05-13T02:22:42.589Z,44.40
2018-05-13T02:23:15.107Z,44.60
2018-05-13T02:23:47.653Z,44.80
2018-05-13T02:24:20.198Z,44.70
2018-05-13T02:24:52.740Z,44.60
2018-05-13T02:25:25.275Z,44.60
2018-05-13T02:25:57.807Z,44.30
2018-05-13T02:26:30.347Z,43.90
2018-05-13T02:27:02.891Z,44.20
2018-05-13T02:27:35.411Z,43.50
2018-05-13T02:28:08.690Z,44.40
2018-05-13T02:28:41.224Z,43.90
2018-05-13T02:29:13.760Z,43.40
2018-05-13T02:29:46.295Z,43.10
2018-05-13T02:30:19.600Z,43.10
2018-05-13T02:30:52.160Z,43.20
2018-05-13T02:31:24.708Z,43.40
2018-05-13T02:31:57.271Z,42.90
2018-05-13T02:32:29.818Z,43.30
2018-05-13T02:33:02.351Z,43.70
2018-05-13T02:33:34.899Z,44.20
2018-05-13T02:34:07.426Z,44.00
2018-05-13T02:34:40.727Z,44.00
2018-05-13T02:35:13.258Z,44.20
2018-05-13T02:35:45.809Z,43.60
2018-05-13T02:36:18.495Z,43.90
2018-05-13T02:36:50.921Z,44.10
2018-05-13T02:37:23.439Z,43.60
2018-05-13T02:37:55.995Z,43.40
2018-05-13T02:38:28.547Z,43.40
2018-05-13T02:39:01.094Z,44.00
2018-05-13T02:39:34.410Z,43.20
2018-05-13T02:40:06.926Z,43.20
2018-05-13T02:40:39.480Z,43.50
2018-05-13T02:41:12.003Z,44.20
2018-05-13T02:41:44.544Z,44.90
2018-05-13T02:42:17.093Z,43.90
2018-05-13T02:42:50.396Z,43.60
2018-05-13T02:43:22.945Z,43.60
2018-05-13T02:43:55.472Z,43.70
2018-05-13T02:44:28.021Z,44.20
2018-05-13T02:45:00.540Z,44.00
2018-05-13T02:45:33.822Z,43.80
2018-05-13T02:46:06.359Z,43.90
2018-05-13T02:46:38.930Z,43.60
2018-05-13T02:47:11.468Z,43.30
2018-05-13T02:47:44.013Z,43.40
2018-05-13T02:48:16.549Z,43.40
2018-05-13T02:48:49.088Z,43.40
2018-05-13T02:49:22.372Z,43.40
2018-05-13T02:49:54.911Z,43.60
2018-05-13T02:50:28.206Z,44.10
2018-05-13T02:51:00.727Z,44.20
2018-05-13T02:51:33.266Z,44.50
2018-05-13T02:52:05.831Z,44.60
2018-05-13T02:52:38.339Z,45.00
2018-05-13T02:53:10.858Z,44.90
2018-05-13T02:53:43.376Z,44.70
2018-05-13T02:54:15.921Z,44.10
2018-05-13T02:54:48.459Z,44.10
2018-05-13T02:55:21.008Z,44.30
2018-05-13T02:55:53.547Z,44.10
2018-05-13T02:56:26.084Z,44.10
2018-05-13T02:56:58.597Z,43.90
2018-05-13T02:57:31.110Z,43.80
2018-05-13T02:58:04.429Z,43.60
2018-05-13T02:58:36.967Z,43.70
2018-05-13T02:59:09.524Z,43.90
2018-05-13T02:59:42.076Z,43.90
2018-05-13T03:00:14.622Z,44.00
2018-05-13T03:00:47.180Z,43.90
2018-05-13T03:01:19.719Z,44.00
2018-05-13T03:01:52.589Z,43.90
2018-05-13T03:02:25.099Z,44.00
2018-05-13T03:02:57.620Z,44.10
2018-05-13T03:03:30.166Z,44.10
2018-05-13T03:04:02.700Z,44.20
2018-05-13T03:04:35.235Z,44.10
2018-05-13T03:05:07.795Z,44.30
2018-05-13T03:05:40.330Z,44.30
2018-05-13T03:06:12.890Z,44.50
2018-05-13T03:06:45.420Z,44.60
2018-05-13T03:07:17.941Z,44.60
2018-05-13T03:07:50.483Z,44.90
2018-05-13T03:08:23.024Z,44.80
2018-05-13T03:08:55.535Z,44.80
2018-05-13T03:09:28.074Z,44.90
2018-05-13T03:10:00.593Z,44.90
2018-05-13T03:10:33.128Z,44.90
2018-05-13T03:11:05.642Z,45.10
2018-05-13T03:11:38.171Z,45.20
2018-05-13T03:12:10.707Z,45.40
2018-05-13T03:12:43.287Z,45.40
2018-05-13T03:13:15.823Z,45.50
2018-05-13T03:13:48.403Z,45.60
2018-05-13T03:14:20.948Z,45.50
2018-05-13T03:14:53.520Z,45.60
2018-05-13T03:15:26.068Z,45.60
2018-05-13T03:15:58.597Z,45.80
2018-05-13T03:16:31.897Z,45.70
2018-05-13T03:17:04.422Z,45.70
2018-05-13T03:17:36.963Z,45.70
2018-05-13T03:18:09.583Z,45.70
2018-05-13T03:18:42.054Z,45.70
2018-05-13T03:19:14.599Z,45.80
2018-05-13T03:19:47.905Z,46.30
2018-05-13T03:20:20.438Z,46.40
2018-05-13T03:20:52.975Z,46.20
2018-05-13T03:21:25.540Z,46.00
2018-05-13T03:21:58.074Z,46.00
2018-05-13T03:22:30.600Z,45.90
2018-05-13T03:23:03.143Z,45.90
2018-05-13T03:23:35.696Z,45.90
2018-05-13T03:24:08.235Z,45.90
2018-05-13T03:24:40.774Z,46.00
2018-05-13T03:25:13.303Z,46.00
2018-05-13T03:25:45.832Z,46.10
2018-05-13T03:26:18.364Z,46.20
2018-05-13T03:26:50.900Z,46.40
2018-05-13T03:27:24.207Z,46.90
2018-05-13T03:27:56.884Z,47.10
2018-05-13T03:28:29.423Z,47.00
2018-05-13T03:29:01.958Z,47.10
2018-05-13T03:29:34.498Z,47.10
2018-05-13T03:30:07.036Z,47.20
2018-05-13T03:30:39.584Z,47.20
2018-05-13T03:31:12.100Z,47.10
2018-05-13T03:31:44.643Z,46.70
2018-05-13T03:32:17.185Z,46.70
2018-05-13T03:32:49.749Z,46.70
2018-05-13T03:33:22.320Z,47.50
2018-05-13T03:33:54.886Z,46.90
2018-05-13T03:34:27.455Z,47.40
2018-05-13T03:34:59.981Z,47.50
2018-05-13T03:35:32.494Z,47.20
2018-05-13T03:36:05.035Z,47.10
2018-05-13T03:36:37.551Z,47.00
2018-05-13T03:37:10.103Z,46.80
2018-05-13T03:37:42.623Z,46.70
2018-05-13T03:38:15.180Z,46.80
2018-05-13T03:38:47.700Z,46.80
2018-05-13T03:39:21.050Z,46.90
2018-05-13T03:39:53.595Z,47.10
2018-05-13T03:40:26.114Z,47.20
2018-05-13T03:40:58.656Z,47.50
2018-05-13T03:41:31.946Z,47.10
2018-05-13T03:42:04.478Z,47.20
2018-05-13T03:42:37.051Z,47.00
2018-05-13T03:43:09.606Z,47.00
2018-05-13T03:43:42.151Z,47.90
2018-05-13T03:44:14.674Z,47.10
2018-05-13T03:44:47.977Z,47.00
2018-05-13T03:45:20.501Z,47.10
2018-05-13T03:45:53.042Z,47.00
2018-05-13T03:46:25.579Z,47.00
2018-05-13T03:46:58.099Z,47.40
2018-05-13T03:47:30.636Z,47.60
2018-05-13T03:48:03.204Z,47.60
2018-05-13T03:48:35.743Z,47.20
2018-05-13T03:49:08.287Z,47.20
2018-05-13T03:49:40.804Z,47.40
2018-05-13T03:50:13.344Z,47.80
2018-05-13T03:50:45.857Z,48.70
2018-05-13T03:51:18.456Z,48.00
2018-05-13T03:51:50.934Z,47.60
2018-05-13T03:52:23.481Z,47.20
2018-05-13T03:52:56.022Z,47.10
2018-05-13T03:53:28.555Z,47.10
2018-05-13T03:54:01.105Z,47.00
2018-05-13T03:54:33.619Z,46.90
2018-05-13T03:55:06.156Z,46.90
2018-05-13T03:55:39.483Z,47.20
2018-05-13T03:56:12.025Z,47.40
2018-05-13T03:56:44.567Z,47.50
2018-05-13T03:57:17.116Z,47.60
2018-05-13T03:57:49.662Z,47.70
2018-05-13T03:58:22.184Z,47.90
2018-05-13T03:58:54.700Z,48.00
2018-05-13T03:59:28.005Z,48.10
2018-05-13T04:00:00.534Z,47.40
2018-05-13T04:00:33.067Z,47.60
2018-05-13T04:01:05.611Z,47.80
2018-05-13T04:01:38.132Z,48.00
2018-05-13T04:02:10.666Z,48.10
2018-05-13T04:02:43.179Z,48.30
2018-05-13T04:03:15.720Z,48.30
2018-05-13T04:03:48.231Z,48.30
2018-05-13T04:04:20.768Z,48.20
2018-05-13T04:04:53.320Z,48.20
2018-05-13T04:05:25.878Z,48.40
2018-05-13T04:05:58.436Z,48.40
2018-05-13T04:06:31.014Z,48.40
2018-05-13T04:07:03.535Z,48.30
2018-05-13T04:07:47.804Z,48.30
2018-05-13T04:19:59.441Z,48.50
2018-05-13T04:20:31.980Z,48.00
2018-05-13T04:21:04.499Z,47.90
2018-05-13T04:21:37.067Z,47.90
2018-05-13T04:22:09.635Z,48.50
2018-05-13T04:22:42.186Z,48.90
2018-05-13T04:23:15.476Z,49.30
2018-05-13T04:23:48.009Z,49.30
2018-05-13T04:24:20.544Z,49.30
2018-05-13T04:24:53.083Z,49.40
2018-05-13T04:25:25.598Z,49.40
2018-05-13T04:25:58.139Z,49.60
2018-05-13T04:26:30.708Z,49.50
2018-05-13T04:27:03.222Z,49.30
2018-05-13T04:27:35.767Z,49.10
2018-05-13T04:28:08.336Z,49.10
2018-05-13T04:28:40.860Z,48.80
2018-05-13T04:29:13.407Z,48.60
2018-05-13T04:29:45.927Z,48.40
2018-05-13T04:30:18.451Z,48.30
2018-05-13T04:30:50.967Z,48.30
2018-05-13T04:31:24.248Z,48.40
2018-05-13T04:31:56.796Z,48.40
2018-05-13T04:32:29.339Z,48.60
2018-05-13T04:33:01.887Z,48.80
2018-05-13T04:33:35.180Z,49.50
2018-05-13T04:34:07.728Z,49.50
2018-05-13T04:34:40.241Z,49.80
2018-05-13T04:35:12.756Z,50.00
2018-05-13T04:35:45.311Z,49.80
2018-05-13T04:36:17.850Z,49.60
2018-05-13T04:36:50.403Z,49.70
2018-05-13T04:37:22.967Z,49.40
2018-05-13T04:37:55.516Z,49.40
2018-05-13T04:38:28.057Z,49.60
2018-05-13T04:39:00.567Z,49.70
2018-05-13T04:39:33.111Z,49.80
2018-05-13T04:40:05.658Z,49.90
2018-05-13T04:40:38.196Z,50.00
2018-05-13T04:41:10.719Z,50.00
2018-05-13T04:41:43.236Z,50.00
2018-05-13T04:42:16.528Z,49.70
2018-05-13T04:42:49.046Z,49.70
2018-05-13T04:43:21.576Z,49.60
2018-05-13T04:43:54.140Z,49.50
2018-05-13T04:44:26.655Z,49.70
2018-05-13T04:44:59.961Z,50.30
2018-05-13T04:45:32.508Z,50.30
2018-05-13T04:46:05.047Z,50.40
2018-05-13T04:46:37.588Z,50.30
2018-05-13T04:47:10.123Z,50.10
2018-05-13T04:47:42.700Z,50.20
2018-05-13T04:48:15.236Z,50.10
2018-05-13T04:48:48.564Z,50.10
2018-05-13T04:49:21.162Z,50.20
2018-05-13T04:49:53.648Z,50.10
2018-05-13T04:50:26.177Z,50.00
2018-05-13T04:50:58.694Z,50.10
2018-05-13T04:51:31.210Z,50.00
2018-05-13T04:52:03.744Z,50.00
2018-05-13T04:52:36.264Z,50.60
2018-05-13T04:53:08.819Z,50.00
2018-05-13T04:53:41.373Z,50.00
2018-05-13T04:54:13.898Z,49.90
2018-05-13T04:54:46.436Z,50.00
2018-05-13T04:55:19.010Z,50.00
2018-05-13T04:55:51.545Z,50.10
2018-05-13T04:56:24.099Z,50.20
2018-05-13T04:56:56.622Z,50.30
2018-05-13T04:57:29.270Z,50.10
2018-05-13T04:58:01.815Z,49.90
2018-05-13T04:58:34.350Z,49.90
2018-05-13T04:59:06.876Z,49.60
2018-05-13T04:59:39.420Z,49.60
2018-05-13T05:00:11.967Z,49.60
2018-05-13T05:00:44.531Z,49.80
2018-05-13T05:01:17.059Z,49.70
2018-05-13T05:01:51.255Z,49.60
2018-05-13T05:02:23.800Z,49.50
2018-05-13T05:02:56.321Z,49.70
2018-05-13T05:03:28.862Z,49.50
2018-05-13T05:04:01.379Z,49.60
2018-05-13T05:04:33.884Z,49.70
2018-05-13T05:05:06.427Z,49.70
2018-05-13T05:05:39.716Z,49.60
2018-05-13T05:06:12.324Z,49.60
2018-05-13T05:06:44.865Z,49.90
2018-05-13T05:07:17.416Z,49.60
2018-05-13T05:07:50.548Z,49.70
2018-05-13T05:08:23.084Z,49.90
2018-05-13T05:08:55.663Z,49.80
2018-05-13T05:09:28.161Z,49.70
2018-05-13T05:10:00.708Z,49.70
2018-05-13T05:10:33.236Z,49.50
2018-05-13T05:11:05.748Z,49.30
2018-05-13T05:11:38.300Z,49.30
2018-05-13T05:12:10.843Z,49.60
2018-05-13T05:12:43.359Z,49.70
2018-05-13T05:13:15.867Z,49.80
2018-05-13T05:13:48.416Z,49.60
2018-05-13T05:14:20.938Z,49.60
2018-05-13T05:14:53.452Z,49.50
2018-05-13T05:15:25.991Z,49.50
2018-05-13T05:15:58.545Z,49.50
2018-05-13T05:16:31.075Z,49.50
2018-05-13T05:17:03.643Z,49.50
2018-05-13T05:17:36.163Z,49.50
2018-05-13T05:18:08.705Z,49.50
2018-05-13T05:18:41.227Z,49.70
2018-05-13T05:19:13.772Z,49.80
2018-05-13T05:19:46.322Z,49.80
2018-05-13T05:20:18.865Z,49.90
2018-05-13T05:20:51.404Z,50.10
2018-05-13T05:21:24.708Z,50.10
2018-05-13T05:21:57.259Z,50.10
2018-05-13T05:22:29.860Z,50.20
2018-05-13T05:23:02.434Z,50.20
2018-05-13T05:23:34.975Z,50.30
2018-05-13T05:24:07.520Z,50.30
2018-05-13T05:24:40.054Z,50.30
2018-05-13T05:25:12.591Z,50.40
2018-05-13T05:25:45.135Z,50.50
2018-05-13T05:26:17.656Z,50.40
2018-05-13T05:26:50.967Z,50.30
2018-05-13T05:27:23.496Z,50.40
2018-05-13T05:27:56.120Z,50.40
2018-05-13T05:28:28.653Z,50.60
2018-05-13T05:29:01.199Z,50.50
2018-05-13T05:29:34.507Z,50.50
2018-05-13T05:30:07.025Z,50.60
2018-05-13T05:30:39.568Z,50.50
2018-05-13T05:31:12.086Z,50.40
2018-05-13T05:31:44.641Z,50.60
2018-05-13T05:32:17.159Z,50.80
2018-05-13T05:32:49.707Z,50.60
2018-05-13T05:33:22.274Z,50.50
2018-05-13T05:33:54.819Z,50.60
2018-05-13T05:34:27.367Z,50.70
2018-05-13T05:34:59.892Z,50.60
2018-05-13T05:35:32.428Z,50.60
2018-05-13T05:36:04.970Z,50.40
2018-05-13T05:36:37.513Z,50.00
2018-05-13T05:37:10.043Z,49.60
2018-05-13T05:37:42.555Z,49.60
2018-05-13T05:38:15.083Z,49.40
2018-05-13T05:38:48.411Z,49.30
2018-05-13T05:39:20.927Z,49.30
2018-05-13T05:39:53.461Z,49.60
2018-05-13T05:40:25.985Z,49.60
2018-05-13T05:40:58.528Z,49.50
2018-05-13T05:41:31.047Z,49.50
2018-05-13T05:42:03.575Z,49.30
2018-05-13T05:42:36.119Z,49.20
2018-05-13T05:43:08.642Z,49.30
2018-05-13T05:43:41.174Z,49.30
2018-05-13T05:44:13.743Z,49.40
2018-05-13T05:44:46.272Z,48.90
2018-05-13T05:45:18.855Z,48.70
2018-05-13T05:45:51.383Z,48.70
2018-05-13T05:46:23.936Z,48.80
2018-05-13T05:46:56.483Z,49.10
2018-05-13T05:47:29.944Z,49.40
2018-05-13T05:48:02.479Z,49.40
2018-05-13T05:48:35.007Z,49.50
2018-05-13T05:49:08.315Z,49.50
2018-05-13T05:49:40.907Z,49.60
2018-05-13T05:50:13.461Z,49.50
2018-05-13T05:50:46.006Z,49.30
2018-05-13T05:51:18.555Z,49.30
2018-05-13T05:51:51.101Z,49.30
2018-05-13T05:52:23.625Z,49.20
2018-05-13T05:52:56.143Z,49.20
2018-05-13T05:53:29.448Z,49.20
2018-05-13T05:54:01.979Z,49.30
2018-05-13T05:54:34.503Z,49.30
2018-05-13T05:55:07.062Z,49.20
2018-05-13T05:55:39.612Z,49.20
2018-05-13T05:56:12.173Z,49.10
2018-05-13T05:56:44.726Z,49.10
2018-05-13T05:57:17.244Z,49.20
2018-05-13T05:57:50.484Z,49.20
2018-05-13T05:58:22.995Z,49.50
2018-05-13T05:58:56.296Z,49.30
2018-05-13T05:59:28.863Z,49.30
2018-05-13T06:00:01.392Z,49.60
2018-05-13T06:00:33.958Z,49.70
2018-05-13T06:01:06.502Z,49.70
2018-05-13T06:01:39.039Z,49.70
2018-05-13T06:02:11.568Z,49.70
2018-05-13T06:02:44.860Z,49.50
2018-05-13T06:03:17.478Z,49.40
2018-05-13T06:03:50.655Z,49.40
2018-05-13T06:04:23.191Z,49.50
2018-05-13T06:04:55.723Z,49.40
2018-05-13T06:05:28.240Z,49.60
2018-05-13T06:06:00.778Z,49.40
2018-05-13T06:06:33.357Z,49.30
2018-05-13T06:07:05.901Z,49.20
2018-05-13T06:07:38.418Z,49.10
2018-05-13T06:08:10.960Z,48.90
2018-05-13T06:08:43.495Z,48.90
2018-05-13T06:09:16.023Z,48.90
2018-05-13T06:09:48.592Z,49.00
2018-05-13T06:10:21.417Z,49.00
2018-05-13T06:10:53.955Z,49.60
2018-05-13T06:11:26.480Z,49.00
2018-05-13T06:11:59.043Z,48.80
2018-05-13T06:12:31.588Z,48.90
2018-05-13T06:13:04.875Z,48.90
2018-05-13T06:13:37.410Z,49.00
2018-05-13T06:14:09.960Z,49.20
2018-05-13T06:14:42.512Z,49.20
2018-05-13T06:15:15.048Z,49.40
2018-05-13T06:15:47.562Z,49.60
2018-05-13T06:16:20.075Z,49.90
2018-05-13T06:16:52.587Z,50.00
2018-05-13T06:17:25.139Z,49.90
2018-05-13T06:17:57.663Z,50.20
2018-05-13T06:18:30.176Z,50.30
2018-05-13T06:19:02.719Z,50.20
2018-05-13T06:19:35.272Z,49.70
2018-05-13T06:20:07.876Z,49.30
2018-05-13T06:20:40.416Z,49.10
2018-05-13T06:21:12.951Z,49.00
2018-05-13T06:21:45.497Z,49.00
2018-05-13T06:22:18.798Z,48.90
2018-05-13T06:22:51.364Z,49.00
2018-05-13T06:23:23.892Z,49.10
2018-05-13T06:23:56.455Z,49.00
2018-05-13T06:24:28.979Z,49.10
2018-05-13T06:25:01.517Z,49.10
2018-05-13T06:25:34.035Z,49.10
2018-05-13T06:26:06.564Z,49.20
2018-05-13T06:26:39.104Z,49.50
2018-05-13T06:27:11.656Z,49.70
2018-05-13T06:27:44.234Z,49.80
2018-05-13T06:28:16.804Z,49.80
2018-05-13T06:28:49.347Z,49.90
2018-05-13T06:29:21.883Z,50.20
2018-05-13T06:29:54.736Z,50.30
2018-05-13T06:30:27.284Z,50.20
2018-05-13T06:30:59.876Z,50.30
2018-05-13T06:31:32.395Z,50.30
2018-05-13T06:32:04.948Z,50.30
2018-05-13T06:32:37.475Z,50.30
2018-05-13T06:33:10.036Z,50.50
2018-05-13T06:33:42.600Z,50.60
2018-05-13T06:34:15.156Z,50.50
2018-05-13T06:34:47.677Z,50.40
2018-05-13T06:35:20.216Z,50.40
2018-05-13T06:35:52.735Z,50.60
2018-05-13T06:36:25.249Z,50.80
2018-05-13T06:36:57.791Z,51.00
2018-05-13T06:37:30.340Z,50.90
2018-05-13T06:38:02.891Z,50.80
2018-05-13T06:38:35.436Z,50.90
2018-05-13T06:39:07.988Z,51.10
2018-05-13T06:39:40.507Z,50.90
2018-05-13T06:40:13.078Z,50.80
2018-05-13T06:40:45.604Z,50.60
2018-05-13T06:41:18.124Z,50.60
2018-05-13T06:41:50.652Z,50.50
2018-05-13T06:42:23.939Z,50.20
2018-05-13T06:42:56.483Z,50.20
2018-05-13T06:43:29.019Z,50.20
2018-05-13T06:44:01.553Z,50.30
2018-05-13T06:44:34.119Z,50.40
2018-05-13T06:45:06.651Z,50.40
2018-05-13T06:45:39.200Z,50.50
2018-05-13T06:46:11.731Z,50.60
2018-05-13T06:46:44.290Z,51.60
2018-05-13T06:47:16.848Z,51.10
2018-05-13T06:47:49.408Z,51.10
2018-05-13T06:48:21.919Z,51.10
2018-05-13T06:48:55.362Z,51.30
2018-05-13T06:49:27.907Z,51.00
2018-05-13T06:50:00.479Z,50.90
2018-05-13T06:50:33.003Z,51.00
2018-05-13T06:51:05.647Z,51.00
2018-05-13T06:51:38.073Z,51.00
2018-05-13T06:52:10.602Z,50.90
2018-05-13T06:52:43.134Z,50.80
2018-05-13T06:53:15.681Z,50.70
2018-05-13T06:53:48.212Z,50.60
2018-05-13T06:54:20.728Z,50.50
2018-05-13T06:54:53.269Z,50.40
2018-05-13T06:55:25.840Z,50.60
2018-05-13T06:55:58.376Z,50.70
2018-05-13T06:56:30.914Z,50.70
2018-05-13T06:57:03.434Z,50.80
2018-05-13T06:57:35.983Z,50.80
2018-05-13T06:58:08.513Z,51.50
2018-05-13T06:58:41.033Z,50.70
2018-05-13T06:59:13.596Z,50.80
2018-05-13T06:59:46.113Z,51.00
2018-05-13T07:00:18.644Z,51.00
2018-05-13T07:00:51.168Z,51.00
2018-05-13T07:01:23.724Z,51.10
2018-05-13T07:01:56.293Z,51.00
2018-05-13T07:02:28.839Z,50.80
2018-05-13T07:03:01.379Z,50.90
2018-05-13T07:03:33.923Z,51.00
2018-05-13T07:04:06.455Z,51.00
2018-05-13T07:04:39.000Z,51.10
2018-05-13T07:05:11.530Z,51.10
2018-05-13T07:05:44.047Z,51.20
2018-05-13T07:06:16.605Z,51.20
2018-05-13T07:06:49.132Z,51.20
2018-05-13T07:07:21.732Z,52.10
2018-05-13T07:07:55.029Z,51.50
2018-05-13T07:08:27.589Z,51.60
2018-05-13T07:09:00.113Z,51.70
2018-05-13T07:09:32.678Z,51.70
2018-05-13T07:10:05.223Z,51.80
2018-05-13T07:10:37.767Z,51.90
2018-05-13T07:11:10.290Z,52.10
2018-05-13T07:11:42.844Z,52.30
2018-05-13T07:12:15.397Z,52.40